sensor_id;sensor_type;location;lat;lon;timestamp;P1;durP1;ratioP1;P2;durP2;ratioP2
68319;SDS011;55168;51.120;17.024;2023-04-24T00:00:01;14.1;;;12.1;;
68319;SDS011;55168;51.120;17.024;2023-04-24T00:01:00;14.1;;;12.1;;
68319;SDS011;55168;51.120;17.024;2023-04-24T00:02:00;13.6;;;12.1;;
68319;SDS011;55168;51.120;17.024;2023-04-24T00:03:00;13.6;;;12.1;;
68319;SDS011;55168;51.120;17.024;2023-04-24T00:04:00;13.6;;;12.1;;
68319;SDS011;55168;51.120;17.024;2023-04-24T00:05:00;13.6;;;12.1;;
68319;SDS011;55168;51.120;17.024;2023-04-24T00:06:00;13.6;;;12.1;;
68319;SDS011;55168;51.120;17.024;2023-04-24T00:07:00;17.8;;;12.6;;
68319;SDS011;55168;51.120;17.024;2023-04-24T00:08:00;17.8;;;12.6;;
68319;SDS011;55168;51.120;17.024;2023-04-24T00:09:00;17.8;;;12.6;;
68319;SDS011;55168;51.120;17.024;2023-04-24T00:10:00;17.8;;;12.6;;
68319;SDS011;55168;51.120;17.024;2023-04-24T00:11:00;17.8;;;12.6;;
68319;SDS011;55168;51.120;17.024;2023-04-24T00:12:00;16.6;;;12.9;;
68319;SDS011;55168;51.120;17.024;2023-04-24T00:13:00;16.6;;;12.9;;
68319;SDS011;55168;51.120;17.024;2023-04-24T00:14:00;16.6;;;12.9;;
68319;SDS011;55168;51.120;17.024;2023-04-24T00:15:00;16.6;;;12.9;;
68319;SDS011;55168;51.120;17.024;2023-04-24T00:16:00;16.6;;;12.9;;
68319;SDS011;55168;51.120;17.024;2023-04-24T00:17:00;15.2;;;13.4;;
68319;SDS011;55168;51.120;17.024;2023-04-24T00:18:00;15.2;;;13.4;;
68319;SDS011;55168;51.120;17.024;2023-04-24T00:19:00;15.2;;;13.4;;
68319;SDS011;55168;51.120;17.024;2023-04-24T00:20:00;15.2;;;13.4;;
68319;SDS011;55168;51.120;17.024;2023-04-24T00:21:00;15.2;;;13.4;;
68319;SDS011;55168;51.120;17.024;2023-04-24T00:22:00;16.4;;;13.5;;
68319;SDS011;55168;51.120;17.024;2023-04-24T00:23:00;16.4;;;13.5;;
68319;SDS011;55168;51.120;17.024;2023-04-24T00:24:00;16.4;;;13.5;;
68319;SDS011;55168;51.120;17.024;2023-04-24T00:25:00;16.4;;;13.5;;
68319;SDS011;55168;51.120;17.024;2023-04-24T00:26:00;16.4;;;13.5;;
68319;SDS011;55168;51.120;17.024;2023-04-24T00:27:00;17.2;;;13.9;;
68319;SDS011;55168;51.120;17.024;2023-04-24T00:28:00;17.2;;;13.9;;
68319;SDS011;55168;51.120;17.024;2023-04-24T00:29:00;17.2;;;13.9;;
68319;SDS011;55168;51.120;17.024;2023-04-24T00:30:00;17.2;;;13.9;;
68319;SDS011;55168;51.120;17.024;2023-04-24T00:31:00;17.2;;;13.9;;
68319;SDS011;55168;51.120;17.024;2023-04-24T00:32:00;16.1;;;14.4;;
68319;SDS011;55168;51.120;17.024;2023-04-24T00:33:00;16.1;;;14.4;;
68319;SDS011;55168;51.120;17.024;2023-04-24T00:34:01;16.1;;;14.4;;
68319;SDS011;55168;51.120;17.024;2023-04-24T00:35:00;16.1;;;14.4;;
68319;SDS011;55168;51.120;17.024;2023-04-24T00:36:00;16.1;;;14.4;;
68319;SDS011;55168;51.120;17.024;2023-04-24T00:37:00;16.9;;;15.1;;
68319;SDS011;55168;51.120;17.024;2023-04-24T00:38:00;16.9;;;15.1;;
68319;SDS011;55168;51.120;17.024;2023-04-24T00:39:00;16.9;;;15.1;;
68319;SDS011;55168;51.120;17.024;2023-04-24T00:40:00;16.9;;;15.1;;
68319;SDS011;55168;51.120;17.024;2023-04-24T00:41:00;16.9;;;15.1;;
68319;SDS011;55168;51.120;17.024;2023-04-24T00:42:00;17.2;;;15.0;;
68319;SDS011;55168;51.120;17.024;2023-04-24T00:43:00;17.2;;;15.0;;
68319;SDS011;55168;51.120;17.024;2023-04-24T00:44:00;17.2;;;15.0;;
68319;SDS011;55168;51.120;17.024;2023-04-24T00:45:00;17.2;;;15.0;;
68319;SDS011;55168;51.120;17.024;2023-04-24T00:46:00;17.2;;;15.0;;
68319;SDS011;55168;51.120;17.024;2023-04-24T00:47:00;17.5;;;15.0;;
68319;SDS011;55168;51.120;17.024;2023-04-24T00:48:00;17.5;;;15.0;;
68319;SDS011;55168;51.120;17.024;2023-04-24T00:49:00;17.5;;;15.0;;
68319;SDS011;55168;51.120;17.024;2023-04-24T00:50:03;17.5;;;15.0;;
68319;SDS011;55168;51.120;17.024;2023-04-24T00:51:00;17.5;;;15.0;;
68319;SDS011;55168;51.120;17.024;2023-04-24T00:52:00;18.2;;;15.1;;
68319;SDS011;55168;51.120;17.024;2023-04-24T00:53:00;18.2;;;15.1;;
68319;SDS011;55168;51.120;17.024;2023-04-24T00:54:00;18.2;;;15.1;;
68319;SDS011;55168;51.120;17.024;2023-04-24T00:55:00;18.2;;;15.1;;
68319;SDS011;55168;51.120;17.024;2023-04-24T00:56:01;18.2;;;15.1;;
68319;SDS011;55168;51.120;17.024;2023-04-24T00:57:01;17.4;;;15.5;;
68319;SDS011;55168;51.120;17.024;2023-04-24T00:58:00;17.4;;;15.5;;
68319;SDS011;55168;51.120;17.024;2023-04-24T00:59:00;17.4;;;15.5;;
68319;SDS011;55168;51.120;17.024;2023-04-24T01:00:00;17.4;;;15.5;;
68319;SDS011;55168;51.120;17.024;2023-04-24T01:01:00;17.4;;;15.5;;
68319;SDS011;55168;51.120;17.024;2023-04-24T01:02:00;17.5;;;15.7;;
68319;SDS011;55168;51.120;17.024;2023-04-24T01:03:01;17.5;;;15.7;;
68319;SDS011;55168;51.120;17.024;2023-04-24T01:04:00;17.5;;;15.7;;
68319;SDS011;55168;51.120;17.024;2023-04-24T01:05:00;17.5;;;15.7;;
68319;SDS011;55168;51.120;17.024;2023-04-24T01:06:00;17.5;;;15.7;;
68319;SDS011;55168;51.120;17.024;2023-04-24T01:07:00;17.4;;;15.3;;
68319;SDS011;55168;51.120;17.024;2023-04-24T01:08:01;17.4;;;15.3;;
68319;SDS011;55168;51.120;17.024;2023-04-24T01:09:00;17.4;;;15.3;;
68319;SDS011;55168;51.120;17.024;2023-04-24T01:10:00;17.4;;;15.3;;
68319;SDS011;55168;51.120;17.024;2023-04-24T01:11:03;17.4;;;15.3;;
68319;SDS011;55168;51.120;17.024;2023-04-24T01:12:00;18.6;;;14.8;;
68319;SDS011;55168;51.120;17.024;2023-04-24T01:13:00;18.6;;;14.8;;
68319;SDS011;55168;51.120;17.024;2023-04-24T01:14:01;18.6;;;14.8;;
68319;SDS011;55168;51.120;17.024;2023-04-24T01:15:00;18.6;;;14.8;;
68319;SDS011;55168;51.120;17.024;2023-04-24T01:16:00;18.6;;;14.8;;
68319;SDS011;55168;51.120;17.024;2023-04-24T01:17:00;16.8;;;14.7;;
68319;SDS011;55168;51.120;17.024;2023-04-24T01:18:00;16.8;;;14.7;;
68319;SDS011;55168;51.120;17.024;2023-04-24T01:19:00;16.8;;;14.7;;
68319;SDS011;55168;51.120;17.024;2023-04-24T01:20:00;16.8;;;14.7;;
68319;SDS011;55168;51.120;17.024;2023-04-24T01:21:03;16.8;;;14.7;;
68319;SDS011;55168;51.120;17.024;2023-04-24T01:22:02;16.6;;;14.8;;
68319;SDS011;55168;51.120;17.024;2023-04-24T01:23:00;16.6;;;14.8;;
68319;SDS011;55168;51.120;17.024;2023-04-24T01:24:00;16.6;;;14.8;;
68319;SDS011;55168;51.120;17.024;2023-04-24T01:25:00;16.6;;;14.8;;
68319;SDS011;55168;51.120;17.024;2023-04-24T01:26:00;16.6;;;14.8;;
68319;SDS011;55168;51.120;17.024;2023-04-24T01:27:00;16.2;;;14.4;;
68319;SDS011;55168;51.120;17.024;2023-04-24T01:28:00;16.2;;;14.4;;
68319;SDS011;55168;51.120;17.024;2023-04-24T01:29:00;16.2;;;14.4;;
68319;SDS011;55168;51.120;17.024;2023-04-24T01:30:00;16.2;;;14.4;;
68319;SDS011;55168;51.120;17.024;2023-04-24T01:31:00;16.2;;;14.4;;
68319;SDS011;55168;51.120;17.024;2023-04-24T01:32:00;16.8;;;14.6;;
68319;SDS011;55168;51.120;17.024;2023-04-24T01:33:00;16.8;;;14.6;;
68319;SDS011;55168;51.120;17.024;2023-04-24T01:34:00;16.8;;;14.6;;
68319;SDS011;55168;51.120;17.024;2023-04-24T01:35:00;16.8;;;14.6;;
68319;SDS011;55168;51.120;17.024;2023-04-24T01:36:00;16.8;;;14.6;;
68319;SDS011;55168;51.120;17.024;2023-04-24T01:37:00;16.6;;;14.4;;
68319;SDS011;55168;51.120;17.024;2023-04-24T01:38:00;16.6;;;14.4;;
68319;SDS011;55168;51.120;17.024;2023-04-24T01:39:00;16.6;;;14.4;;
68319;SDS011;55168;51.120;17.024;2023-04-24T01:40:00;16.6;;;14.4;;
68319;SDS011;55168;51.120;17.024;2023-04-24T01:41:00;16.6;;;14.4;;
68319;SDS011;55168;51.120;17.024;2023-04-24T01:42:00;16.0;;;14.1;;
68319;SDS011;55168;51.120;17.024;2023-04-24T01:43:00;16.0;;;14.1;;
68319;SDS011;55168;51.120;17.024;2023-04-24T01:44:00;16.0;;;14.1;;
68319;SDS011;55168;51.120;17.024;2023-04-24T01:45:01;16.0;;;14.1;;
68319;SDS011;55168;51.120;17.024;2023-04-24T01:46:00;16.0;;;14.1;;
68319;SDS011;55168;51.120;17.024;2023-04-24T01:47:01;16.4;;;13.7;;
68319;SDS011;55168;51.120;17.024;2023-04-24T01:48:00;16.4;;;13.7;;
68319;SDS011;55168;51.120;17.024;2023-04-24T01:49:01;16.4;;;13.7;;
68319;SDS011;55168;51.120;17.024;2023-04-24T01:50:00;16.4;;;13.7;;
68319;SDS011;55168;51.120;17.024;2023-04-24T01:51:00;16.4;;;13.7;;
68319;SDS011;55168;51.120;17.024;2023-04-24T01:52:00;16.0;;;14.3;;
68319;SDS011;55168;51.120;17.024;2023-04-24T01:53:00;16.0;;;14.3;;
68319;SDS011;55168;51.120;17.024;2023-04-24T01:54:00;16.0;;;14.3;;
68319;SDS011;55168;51.120;17.024;2023-04-24T01:55:00;16.0;;;14.3;;
68319;SDS011;55168;51.120;17.024;2023-04-24T01:56:00;16.0;;;14.3;;
68319;SDS011;55168;51.120;17.024;2023-04-24T01:57:00;15.7;;;14.1;;
68319;SDS011;55168;51.120;17.024;2023-04-24T01:58:01;15.7;;;14.1;;
68319;SDS011;55168;51.120;17.024;2023-04-24T01:59:01;15.7;;;14.1;;
68319;SDS011;55168;51.120;17.024;2023-04-24T02:00:00;15.7;;;14.1;;
68319;SDS011;55168;51.120;17.024;2023-04-24T02:01:00;15.7;;;14.1;;
68319;SDS011;55168;51.120;17.024;2023-04-24T02:02:00;15.9;;;14.2;;
68319;SDS011;55168;51.120;17.024;2023-04-24T02:03:00;15.9;;;14.2;;
68319;SDS011;55168;51.120;17.024;2023-04-24T02:04:00;15.9;;;14.2;;
68319;SDS011;55168;51.120;17.024;2023-04-24T02:05:00;15.9;;;14.2;;
68319;SDS011;55168;51.120;17.024;2023-04-24T02:06:00;15.9;;;14.2;;
68319;SDS011;55168;51.120;17.024;2023-04-24T02:07:00;16.6;;;14.5;;
68319;SDS011;55168;51.120;17.024;2023-04-24T02:08:00;16.6;;;14.5;;
68319;SDS011;55168;51.120;17.024;2023-04-24T02:09:00;16.6;;;14.5;;
68319;SDS011;55168;51.120;17.024;2023-04-24T02:10:00;16.6;;;14.5;;
68319;SDS011;55168;51.120;17.024;2023-04-24T02:11:00;16.6;;;14.5;;
68319;SDS011;55168;51.120;17.024;2023-04-24T02:12:00;16.2;;;14.5;;
68319;SDS011;55168;51.120;17.024;2023-04-24T02:13:00;16.2;;;14.5;;
68319;SDS011;55168;51.120;17.024;2023-04-24T02:14:00;16.2;;;14.5;;
68319;SDS011;55168;51.120;17.024;2023-04-24T02:15:00;16.2;;;14.5;;
68319;SDS011;55168;51.120;17.024;2023-04-24T02:16:00;16.2;;;14.5;;
68319;SDS011;55168;51.120;17.024;2023-04-24T02:17:00;16.1;;;14.4;;
68319;SDS011;55168;51.120;17.024;2023-04-24T02:18:00;16.1;;;14.4;;
68319;SDS011;55168;51.120;17.024;2023-04-24T02:19:00;16.1;;;14.4;;
68319;SDS011;55168;51.120;17.024;2023-04-24T02:20:00;16.1;;;14.4;;
68319;SDS011;55168;51.120;17.024;2023-04-24T02:21:00;16.1;;;14.4;;
68319;SDS011;55168;51.120;17.024;2023-04-24T02:22:00;15.9;;;14.1;;
68319;SDS011;55168;51.120;17.024;2023-04-24T02:23:00;15.9;;;14.1;;
68319;SDS011;55168;51.120;17.024;2023-04-24T02:24:00;15.9;;;14.1;;
68319;SDS011;55168;51.120;17.024;2023-04-24T02:25:00;15.9;;;14.1;;
68319;SDS011;55168;51.120;17.024;2023-04-24T02:26:00;15.9;;;14.1;;
68319;SDS011;55168;51.120;17.024;2023-04-24T02:27:00;17.9;;;15.1;;
68319;SDS011;55168;51.120;17.024;2023-04-24T02:28:00;17.9;;;15.1;;
68319;SDS011;55168;51.120;17.024;2023-04-24T02:29:00;17.9;;;15.1;;
68319;SDS011;55168;51.120;17.024;2023-04-24T02:30:00;17.9;;;15.1;;
68319;SDS011;55168;51.120;17.024;2023-04-24T02:31:00;17.9;;;15.1;;
68319;SDS011;55168;51.120;17.024;2023-04-24T02:32:00;17.1;;;15.3;;
68319;SDS011;55168;51.120;17.024;2023-04-24T02:33:00;17.1;;;15.3;;
68319;SDS011;55168;51.120;17.024;2023-04-24T02:34:00;17.1;;;15.3;;
68319;SDS011;55168;51.120;17.024;2023-04-24T02:35:00;17.1;;;15.3;;
68319;SDS011;55168;51.120;17.024;2023-04-24T02:36:00;17.1;;;15.3;;
68319;SDS011;55168;51.120;17.024;2023-04-24T02:37:00;19.7;;;15.8;;
68319;SDS011;55168;51.120;17.024;2023-04-24T02:38:00;19.7;;;15.8;;
68319;SDS011;55168;51.120;17.024;2023-04-24T02:39:00;19.7;;;15.8;;
68319;SDS011;55168;51.120;17.024;2023-04-24T02:40:00;19.7;;;15.8;;
68319;SDS011;55168;51.120;17.024;2023-04-24T02:41:00;19.7;;;15.8;;
68319;SDS011;55168;51.120;17.024;2023-04-24T02:42:00;16.9;;;14.7;;
68319;SDS011;55168;51.120;17.024;2023-04-24T02:43:00;16.9;;;14.7;;
68319;SDS011;55168;51.120;17.024;2023-04-24T02:44:00;16.9;;;14.7;;
68319;SDS011;55168;51.120;17.024;2023-04-24T02:45:00;16.9;;;14.7;;
68319;SDS011;55168;51.120;17.024;2023-04-24T02:46:00;16.9;;;14.7;;
68319;SDS011;55168;51.120;17.024;2023-04-24T02:47:00;16.6;;;14.9;;
68319;SDS011;55168;51.120;17.024;2023-04-24T02:48:00;16.6;;;14.9;;
68319;SDS011;55168;51.120;17.024;2023-04-24T02:49:00;16.6;;;14.9;;
68319;SDS011;55168;51.120;17.024;2023-04-24T02:50:00;16.6;;;14.9;;
68319;SDS011;55168;51.120;17.024;2023-04-24T02:51:00;16.6;;;14.9;;
68319;SDS011;55168;51.120;17.024;2023-04-24T02:52:00;19.0;;;16.7;;
68319;SDS011;55168;51.120;17.024;2023-04-24T02:53:00;19.0;;;16.7;;
68319;SDS011;55168;51.120;17.024;2023-04-24T02:54:00;19.0;;;16.7;;
68319;SDS011;55168;51.120;17.024;2023-04-24T02:55:00;19.0;;;16.7;;
68319;SDS011;55168;51.120;17.024;2023-04-24T02:56:00;19.0;;;16.7;;
68319;SDS011;55168;51.120;17.024;2023-04-24T02:57:00;19.7;;;16.5;;
68319;SDS011;55168;51.120;17.024;2023-04-24T02:58:00;19.7;;;16.5;;
68319;SDS011;55168;51.120;17.024;2023-04-24T02:59:00;19.7;;;16.5;;
68319;SDS011;55168;51.120;17.024;2023-04-24T03:00:00;19.7;;;16.5;;
68319;SDS011;55168;51.120;17.024;2023-04-24T03:01:00;19.7;;;16.5;;
68319;SDS011;55168;51.120;17.024;2023-04-24T03:02:00;20.0;;;16.4;;
68319;SDS011;55168;51.120;17.024;2023-04-24T03:03:00;20.0;;;16.4;;
68319;SDS011;55168;51.120;17.024;2023-04-24T03:04:00;20.0;;;16.4;;
68319;SDS011;55168;51.120;17.024;2023-04-24T03:05:00;20.0;;;16.4;;
68319;SDS011;55168;51.120;17.024;2023-04-24T03:06:00;20.0;;;16.4;;
68319;SDS011;55168;51.120;17.024;2023-04-24T03:07:00;19.2;;;17.0;;
68319;SDS011;55168;51.120;17.024;2023-04-24T03:08:00;19.2;;;17.0;;
68319;SDS011;55168;51.120;17.024;2023-04-24T03:09:00;19.2;;;17.0;;
68319;SDS011;55168;51.120;17.024;2023-04-24T03:10:00;19.2;;;17.0;;
68319;SDS011;55168;51.120;17.024;2023-04-24T03:11:00;19.2;;;17.0;;
68319;SDS011;55168;51.120;17.024;2023-04-24T03:12:00;20.1;;;16.8;;
68319;SDS011;55168;51.120;17.024;2023-04-24T03:13:00;20.1;;;16.8;;
68319;SDS011;55168;51.120;17.024;2023-04-24T03:14:00;20.1;;;16.8;;
68319;SDS011;55168;51.120;17.024;2023-04-24T03:15:00;20.1;;;16.8;;
68319;SDS011;55168;51.120;17.024;2023-04-24T03:16:00;20.1;;;16.8;;
68319;SDS011;55168;51.120;17.024;2023-04-24T03:17:00;19.9;;;16.4;;
68319;SDS011;55168;51.120;17.024;2023-04-24T03:18:00;19.9;;;16.4;;
68319;SDS011;55168;51.120;17.024;2023-04-24T03:19:00;19.9;;;16.4;;
68319;SDS011;55168;51.120;17.024;2023-04-24T03:20:00;19.9;;;16.4;;
68319;SDS011;55168;51.120;17.024;2023-04-24T03:21:00;19.9;;;16.4;;
68319;SDS011;55168;51.120;17.024;2023-04-24T03:22:02;18.5;;;16.6;;
68319;SDS011;55168;51.120;17.024;2023-04-24T03:23:00;18.5;;;16.6;;
68319;SDS011;55168;51.120;17.024;2023-04-24T03:24:00;18.5;;;16.6;;
68319;SDS011;55168;51.120;17.024;2023-04-24T03:25:00;18.5;;;16.6;;
68319;SDS011;55168;51.120;17.024;2023-04-24T03:26:00;18.5;;;16.6;;
68319;SDS011;55168;51.120;17.024;2023-04-24T03:27:00;20.0;;;17.0;;
68319;SDS011;55168;51.120;17.024;2023-04-24T03:28:00;20.0;;;17.0;;
68319;SDS011;55168;51.120;17.024;2023-04-24T03:29:00;20.0;;;17.0;;
68319;SDS011;55168;51.120;17.024;2023-04-24T03:30:00;20.0;;;17.0;;
68319;SDS011;55168;51.120;17.024;2023-04-24T03:31:00;20.0;;;17.0;;
68319;SDS011;55168;51.120;17.024;2023-04-24T03:32:00;18.0;;;16.1;;
68319;SDS011;55168;51.120;17.024;2023-04-24T03:33:00;18.0;;;16.1;;
68319;SDS011;55168;51.120;17.024;2023-04-24T03:34:00;18.0;;;16.1;;
68319;SDS011;55168;51.120;17.024;2023-04-24T03:35:00;18.0;;;16.1;;
68319;SDS011;55168;51.120;17.024;2023-04-24T03:36:00;18.0;;;16.1;;
68319;SDS011;55168;51.120;17.024;2023-04-24T03:37:00;17.8;;;15.1;;
68319;SDS011;55168;51.120;17.024;2023-04-24T03:38:00;17.8;;;15.1;;
68319;SDS011;55168;51.120;17.024;2023-04-24T03:39:00;17.8;;;15.1;;
68319;SDS011;55168;51.120;17.024;2023-04-24T03:40:00;17.8;;;15.1;;
68319;SDS011;55168;51.120;17.024;2023-04-24T03:41:00;17.8;;;15.1;;
68319;SDS011;55168;51.120;17.024;2023-04-24T03:42:00;16.9;;;14.4;;
68319;SDS011;55168;51.120;17.024;2023-04-24T03:43:00;16.9;;;14.4;;
68319;SDS011;55168;51.120;17.024;2023-04-24T03:44:00;16.9;;;14.4;;
68319;SDS011;55168;51.120;17.024;2023-04-24T03:45:00;16.9;;;14.4;;
68319;SDS011;55168;51.120;17.024;2023-04-24T03:46:00;16.9;;;14.4;;
68319;SDS011;55168;51.120;17.024;2023-04-24T03:47:00;15.2;;;13.6;;
68319;SDS011;55168;51.120;17.024;2023-04-24T03:48:00;15.2;;;13.6;;
68319;SDS011;55168;51.120;17.024;2023-04-24T03:49:00;15.2;;;13.6;;
68319;SDS011;55168;51.120;17.024;2023-04-24T03:50:00;15.2;;;13.6;;
68319;SDS011;55168;51.120;17.024;2023-04-24T03:51:00;15.2;;;13.6;;
68319;SDS011;55168;51.120;17.024;2023-04-24T03:52:00;17.5;;;14.1;;
68319;SDS011;55168;51.120;17.024;2023-04-24T03:53:00;17.5;;;14.1;;
68319;SDS011;55168;51.120;17.024;2023-04-24T03:54:00;17.5;;;14.1;;
68319;SDS011;55168;51.120;17.024;2023-04-24T03:55:00;17.5;;;14.1;;
68319;SDS011;55168;51.120;17.024;2023-04-24T03:56:00;17.5;;;14.1;;
68319;SDS011;55168;51.120;17.024;2023-04-24T03:57:00;16.3;;;14.6;;
68319;SDS011;55168;51.120;17.024;2023-04-24T03:58:00;16.3;;;14.6;;
68319;SDS011;55168;51.120;17.024;2023-04-24T03:59:00;16.3;;;14.6;;
68319;SDS011;55168;51.120;17.024;2023-04-24T04:00:00;16.3;;;14.6;;
68319;SDS011;55168;51.120;17.024;2023-04-24T04:01:00;16.3;;;14.6;;
68319;SDS011;55168;51.120;17.024;2023-04-24T04:02:00;17.6;;;14.5;;
68319;SDS011;55168;51.120;17.024;2023-04-24T04:03:00;17.6;;;14.5;;
68319;SDS011;55168;51.120;17.024;2023-04-24T04:04:00;17.6;;;14.5;;
68319;SDS011;55168;51.120;17.024;2023-04-24T04:05:00;17.6;;;14.5;;
68319;SDS011;55168;51.120;17.024;2023-04-24T04:06:00;17.6;;;14.5;;
68319;SDS011;55168;51.120;17.024;2023-04-24T04:07:00;15.5;;;14.0;;
68319;SDS011;55168;51.120;17.024;2023-04-24T04:08:00;15.5;;;14.0;;
68319;SDS011;55168;51.120;17.024;2023-04-24T04:09:00;15.5;;;14.0;;
68319;SDS011;55168;51.120;17.024;2023-04-24T04:10:00;15.5;;;14.0;;
68319;SDS011;55168;51.120;17.024;2023-04-24T04:11:00;15.5;;;14.0;;
68319;SDS011;55168;51.120;17.024;2023-04-24T04:12:00;15.5;;;13.8;;
68319;SDS011;55168;51.120;17.024;2023-04-24T04:13:00;15.5;;;13.8;;
68319;SDS011;55168;51.120;17.024;2023-04-24T04:14:00;15.5;;;13.8;;
68319;SDS011;55168;51.120;17.024;2023-04-24T04:15:00;15.5;;;13.8;;
68319;SDS011;55168;51.120;17.024;2023-04-24T04:16:00;15.5;;;13.8;;
68319;SDS011;55168;51.120;17.024;2023-04-24T04:17:00;15.7;;;14.0;;
68319;SDS011;55168;51.120;17.024;2023-04-24T04:18:00;15.7;;;14.0;;
68319;SDS011;55168;51.120;17.024;2023-04-24T04:19:00;15.7;;;14.0;;
68319;SDS011;55168;51.120;17.024;2023-04-24T04:20:00;15.7;;;14.0;;
68319;SDS011;55168;51.120;17.024;2023-04-24T04:21:00;15.7;;;14.0;;
68319;SDS011;55168;51.120;17.024;2023-04-24T04:22:00;16.0;;;14.1;;
68319;SDS011;55168;51.120;17.024;2023-04-24T04:23:00;16.0;;;14.1;;
68319;SDS011;55168;51.120;17.024;2023-04-24T04:24:00;16.0;;;14.1;;
68319;SDS011;55168;51.120;17.024;2023-04-24T04:25:00;16.0;;;14.1;;
68319;SDS011;55168;51.120;17.024;2023-04-24T04:26:00;16.0;;;14.1;;
68319;SDS011;55168;51.120;17.024;2023-04-24T04:27:00;17.5;;;14.4;;
68319;SDS011;55168;51.120;17.024;2023-04-24T04:28:00;17.5;;;14.4;;
68319;SDS011;55168;51.120;17.024;2023-04-24T04:29:00;17.5;;;14.4;;
68319;SDS011;55168;51.120;17.024;2023-04-24T04:30:01;17.5;;;14.4;;
68319;SDS011;55168;51.120;17.024;2023-04-24T04:31:00;17.5;;;14.4;;
68319;SDS011;55168;51.120;17.024;2023-04-24T04:32:00;18.4;;;14.6;;
68319;SDS011;55168;51.120;17.024;2023-04-24T04:33:00;18.4;;;14.6;;
68319;SDS011;55168;51.120;17.024;2023-04-24T04:34:00;18.4;;;14.6;;
68319;SDS011;55168;51.120;17.024;2023-04-24T04:35:01;18.4;;;14.6;;
68319;SDS011;55168;51.120;17.024;2023-04-24T04:36:00;18.4;;;14.6;;
68319;SDS011;55168;51.120;17.024;2023-04-24T04:37:00;14.8;;;13.3;;
68319;SDS011;55168;51.120;17.024;2023-04-24T04:38:00;14.8;;;13.3;;
68319;SDS011;55168;51.120;17.024;2023-04-24T04:39:00;14.8;;;13.3;;
68319;SDS011;55168;51.120;17.024;2023-04-24T04:40:00;14.8;;;13.3;;
68319;SDS011;55168;51.120;17.024;2023-04-24T04:41:00;14.8;;;13.3;;
68319;SDS011;55168;51.120;17.024;2023-04-24T04:42:00;14.2;;;12.7;;
68319;SDS011;55168;51.120;17.024;2023-04-24T04:43:00;14.2;;;12.7;;
68319;SDS011;55168;51.120;17.024;2023-04-24T04:44:01;14.2;;;12.7;;
68319;SDS011;55168;51.120;17.024;2023-04-24T04:45:00;14.2;;;12.7;;
68319;SDS011;55168;51.120;17.024;2023-04-24T04:46:00;14.2;;;12.7;;
68319;SDS011;55168;51.120;17.024;2023-04-24T04:47:00;14.2;;;12.7;;
68319;SDS011;55168;51.120;17.024;2023-04-24T04:48:00;14.2;;;12.7;;
68319;SDS011;55168;51.120;17.024;2023-04-24T04:49:01;14.2;;;12.7;;
68319;SDS011;55168;51.120;17.024;2023-04-24T04:50:00;14.2;;;12.7;;
68319;SDS011;55168;51.120;17.024;2023-04-24T04:51:00;14.2;;;12.7;;
68319;SDS011;55168;51.120;17.024;2023-04-24T04:52:00;14.4;;;12.9;;
68319;SDS011;55168;51.120;17.024;2023-04-24T04:53:00;14.4;;;12.9;;
68319;SDS011;55168;51.120;17.024;2023-04-24T04:54:00;14.4;;;12.9;;
68319;SDS011;55168;51.120;17.024;2023-04-24T04:55:00;14.4;;;12.9;;
68319;SDS011;55168;51.120;17.024;2023-04-24T04:56:00;14.4;;;12.9;;
68319;SDS011;55168;51.120;17.024;2023-04-24T04:57:00;12.9;;;11.5;;
68319;SDS011;55168;51.120;17.024;2023-04-24T04:58:00;12.9;;;11.5;;
68319;SDS011;55168;51.120;17.024;2023-04-24T04:59:00;12.9;;;11.5;;
68319;SDS011;55168;51.120;17.024;2023-04-24T05:00:00;12.9;;;11.5;;
68319;SDS011;55168;51.120;17.024;2023-04-24T05:01:00;12.9;;;11.5;;
68319;SDS011;55168;51.120;17.024;2023-04-24T05:02:00;14.8;;;11.8;;
68319;SDS011;55168;51.120;17.024;2023-04-24T05:03:00;14.8;;;11.8;;
68319;SDS011;55168;51.120;17.024;2023-04-24T05:04:00;14.8;;;11.8;;
68319;SDS011;55168;51.120;17.024;2023-04-24T05:05:00;14.8;;;11.8;;
68319;SDS011;55168;51.120;17.024;2023-04-24T05:06:00;14.8;;;11.8;;
68319;SDS011;55168;51.120;17.024;2023-04-24T05:07:00;15.4;;;11.9;;
68319;SDS011;55168;51.120;17.024;2023-04-24T05:08:00;15.4;;;11.9;;
68319;SDS011;55168;51.120;17.024;2023-04-24T05:09:00;15.4;;;11.9;;
68319;SDS011;55168;51.120;17.024;2023-04-24T05:10:00;15.4;;;11.9;;
68319;SDS011;55168;51.120;17.024;2023-04-24T05:11:00;15.4;;;11.9;;
68319;SDS011;55168;51.120;17.024;2023-04-24T05:12:00;13.0;;;11.6;;
68319;SDS011;55168;51.120;17.024;2023-04-24T05:13:00;13.0;;;11.6;;
68319;SDS011;55168;51.120;17.024;2023-04-24T05:14:00;13.0;;;11.6;;
68319;SDS011;55168;51.120;17.024;2023-04-24T05:15:00;13.0;;;11.6;;
68319;SDS011;55168;51.120;17.024;2023-04-24T05:16:00;13.0;;;11.6;;
68319;SDS011;55168;51.120;17.024;2023-04-24T05:17:00;16.4;;;13.0;;
68319;SDS011;55168;51.120;17.024;2023-04-24T05:18:00;16.4;;;13.0;;
68319;SDS011;55168;51.120;17.024;2023-04-24T05:19:00;16.4;;;13.0;;
68319;SDS011;55168;51.120;17.024;2023-04-24T05:20:00;16.4;;;13.0;;
68319;SDS011;55168;51.120;17.024;2023-04-24T05:21:00;16.4;;;13.0;;
68319;SDS011;55168;51.120;17.024;2023-04-24T05:22:00;12.8;;;11.1;;
68319;SDS011;55168;51.120;17.024;2023-04-24T05:23:00;12.8;;;11.1;;
68319;SDS011;55168;51.120;17.024;2023-04-24T05:24:00;12.8;;;11.1;;
68319;SDS011;55168;51.120;17.024;2023-04-24T05:25:00;12.8;;;11.1;;
68319;SDS011;55168;51.120;17.024;2023-04-24T05:26:00;12.8;;;11.1;;
68319;SDS011;55168;51.120;17.024;2023-04-24T05:27:00;12.9;;;11.1;;
68319;SDS011;55168;51.120;17.024;2023-04-24T05:28:00;12.9;;;11.1;;
68319;SDS011;55168;51.120;17.024;2023-04-24T05:29:00;12.9;;;11.1;;
68319;SDS011;55168;51.120;17.024;2023-04-24T05:30:00;12.9;;;11.1;;
68319;SDS011;55168;51.120;17.024;2023-04-24T05:31:00;12.9;;;11.1;;
68319;SDS011;55168;51.120;17.024;2023-04-24T05:32:00;13.6;;;11.3;;
68319;SDS011;55168;51.120;17.024;2023-04-24T05:33:00;13.6;;;11.3;;
68319;SDS011;55168;51.120;17.024;2023-04-24T05:34:00;13.6;;;11.3;;
68319;SDS011;55168;51.120;17.024;2023-04-24T05:35:00;13.6;;;11.3;;
68319;SDS011;55168;51.120;17.024;2023-04-24T05:36:00;13.6;;;11.3;;
68319;SDS011;55168;51.120;17.024;2023-04-24T05:37:00;12.6;;;11.3;;
68319;SDS011;55168;51.120;17.024;2023-04-24T05:38:00;12.6;;;11.3;;
68319;SDS011;55168;51.120;17.024;2023-04-24T05:39:00;12.6;;;11.3;;
68319;SDS011;55168;51.120;17.024;2023-04-24T05:40:00;12.6;;;11.3;;
68319;SDS011;55168;51.120;17.024;2023-04-24T05:41:00;12.6;;;11.3;;
68319;SDS011;55168;51.120;17.024;2023-04-24T05:42:00;10.1;;;9.0;;
68319;SDS011;55168;51.120;17.024;2023-04-24T05:43:00;10.1;;;9.0;;
68319;SDS011;55168;51.120;17.024;2023-04-24T05:44:00;10.1;;;9.0;;
68319;SDS011;55168;51.120;17.024;2023-04-24T05:45:00;10.1;;;9.0;;
68319;SDS011;55168;51.120;17.024;2023-04-24T05:46:00;10.1;;;9.0;;
68319;SDS011;55168;51.120;17.024;2023-04-24T05:47:00;10.6;;;8.3;;
68319;SDS011;55168;51.120;17.024;2023-04-24T05:48:00;10.6;;;8.3;;
68319;SDS011;55168;51.120;17.024;2023-04-24T05:49:00;10.6;;;8.3;;
68319;SDS011;55168;51.120;17.024;2023-04-24T05:50:00;10.6;;;8.3;;
68319;SDS011;55168;51.120;17.024;2023-04-24T05:51:00;10.6;;;8.3;;
68319;SDS011;55168;51.120;17.024;2023-04-24T05:52:00;11.0;;;8.3;;
68319;SDS011;55168;51.120;17.024;2023-04-24T05:53:00;11.0;;;8.3;;
68319;SDS011;55168;51.120;17.024;2023-04-24T05:54:00;11.0;;;8.3;;
68319;SDS011;55168;51.120;17.024;2023-04-24T05:55:00;11.0;;;8.3;;
68319;SDS011;55168;51.120;17.024;2023-04-24T05:56:00;11.0;;;8.3;;